Share

Gilbert, MN (55741)

1:21 AM CDT on April 24, 2014 (GMT -0500)
Eveleth-Virginia Municipal (KEVM) Elev 1378 ft | 47.43 °N, 92.50 °W | Change Station

Current weather conditions updated 7 minutes ago

Overcast
Overcast
34 °F
Feels Like 30 °F
N
5
Wind Variable Wind from East
Sunrise 6:04 AM
Sunset 8:11 PM
Moon Waning Crescent

Today is forecast to be Much Cooler than yesterday. Rain mixed with snow.

Pressure 30.02 in
Visibility 5.0 miles
Clouds Scattered Clouds 500 ft
Scattered Clouds 2000 ft
Overcast 2600 ft
Windchill 30 °F
Dew Point 32 °F
Humidity 93%
Rainfall 0.05 in
Snow Depth Not available.
UV 0 out of 16
Pollen 9.80 out of 12
Air Quality Not available.
Flu Activity Sporadic
METAR KEVM 240614Z AUTO 10004KT 5SM UP SCT005 SCT020 OVC026 01/00 A3002 RMK AO2 P0001

More Conditions Fewer Conditions

Pressure 30.02 in
Visibility 5.0 miles
Clouds Scattered Clouds 500 ft
Scattered Clouds 2000 ft
Overcast 2600 ft
Windchill 30 °F
Dew Point 32 °F
Humidity 93%
Rainfall 0.05 in
Snow Depth Not available.
UV 0 out of 16
Pollen 9.80 out of 12
Air Quality Not available.
Flu Activity Sporadic
METAR KEVM 240614Z AUTO 10004KT 5SM UP SCT005 SCT020 OVC026 01/00 A3002 RMK AO2 P0001

More Conditions Fewer Conditions

10-Day Weather Forecast

Almanac

Astronomy

Apr. 24, 2014 Rise Set
Actual Time 6:04 AM CDT 8:11 PM CDT
Civil Twilight 5:31 AM CDT 8:45 PM CDT
Nautical Twilight 4:50 AM CDT 9:26 PM CDT
Astronomical Twilight 4:04 AM CDT 10:13 PM CDT
Moon 3:37 AM CDT 3:08 PM CDT
Length of Visible Light 15h 13m
Length of Day
14h 07m
Tomorrow will be 3m 8s longer.
Waning Crescent, 29% of the Moon is Illuminated
Today
Waning Crescent
Apr 29
New
May 6
First Quarter
May 14
Full
May 21
Last Quarter

Today's Extremes

State Highs State Lows

Community

  • Stacked
    Stacked
  • clouds approaching Red Sox Nation
    clouds approaching Red Sox Nation
  • Balance
    Balance
  • Nestled In
    Nestled In
  • Stunning Sunrise
    Stunning Sunrise

WunderPhotos

Upload Photos

1,704,568 photos uploaded!

WunderBlogs® & News

Nearby

Snow Depth

Station Depth Elevation
No new snow has been reported.

Coastal Water Temperatures

Place Temperature
No Stations Reporting

Earthquake Activity

City Distance Mag. Time & Date
No recent earthquake activity has been reported nearby.
Minimum magnitude displayed is 2.5.

Nearby Weather Stations

Station Location Temp. Windchill Dew Point Humidity Wind Precip. Elev Updated Type
RAWS HIBBING MN, Hibbing, MN 33 °F 27 °F 32 °F 97% East  at  6 mph 0.00 in / hr 1350 ft 12:07 AM CDT MADIS

Show More Stations Show Fewer Stations

What do you think?

We're not finished. Please let us know what you like, what you don't like, and what you are still missing.